sensor_id;sensor_type;location;lat;lon;timestamp;temperature;humidity
74359;DHT22;62792;46.236;6.040;2023-04-25T00:04:23;22.50;42.40
74359;DHT22;62792;46.236;6.040;2023-04-25T00:09:27;22.50;42.20
74359;DHT22;62792;46.236;6.040;2023-04-25T00:14:31;22.50;42.20
74359;DHT22;62792;46.236;6.040;2023-04-25T00:19:36;22.60;42.20
74359;DHT22;62792;46.236;6.040;2023-04-25T00:24:39;22.40;42.20
74359;DHT22;62792;46.236;6.040;2023-04-25T00:29:43;22.50;42.10
74359;DHT22;62792;46.236;6.040;2023-04-25T00:34:46;22.50;42.40
74359;DHT22;62792;46.236;6.040;2023-04-25T00:39:49;22.50;42.30
74359;DHT22;62792;46.236;6.040;2023-04-25T00:44:56;22.40;42.40
74359;DHT22;62792;46.236;6.040;2023-04-25T00:49:59;22.50;42.30
74359;DHT22;62792;46.236;6.040;2023-04-25T00:55:02;22.50;42.40
74359;DHT22;62792;46.236;6.040;2023-04-25T01:00:08;22.50;42.50
74359;DHT22;62792;46.236;6.040;2023-04-25T01:05:12;22.40;42.60
74359;DHT22;62792;46.236;6.040;2023-04-25T01:10:15;22.40;42.60
74359;DHT22;62792;46.236;6.040;2023-04-25T01:15:19;22.50;42.70
74359;DHT22;62792;46.236;6.040;2023-04-25T01:20:22;22.50;42.60
74359;DHT22;62792;46.236;6.040;2023-04-25T01:25:26;22.40;42.70
74359;DHT22;62792;46.236;6.040;2023-04-25T01:30:29;22.40;42.70
74359;DHT22;62792;46.236;6.040;2023-04-25T01:35:32;22.40;42.80
74359;DHT22;62792;46.236;6.040;2023-04-25T01:40:37;22.40;42.80
74359;DHT22;62792;46.236;6.040;2023-04-25T01:45:42;22.40;42.70
74359;DHT22;62792;46.236;6.040;2023-04-25T01:50:45;22.40;42.80
74359;DHT22;62792;46.236;6.040;2023-04-25T01:55:50;22.40;42.70
74359;DHT22;62792;46.236;6.040;2023-04-25T02:00:53;22.40;42.70
74359;DHT22;62792;46.236;6.040;2023-04-25T02:05:56;22.40;42.70
74359;DHT22;62792;46.236;6.040;2023-04-25T02:11:00;22.40;42.60
74359;DHT22;62792;46.236;6.040;2023-04-25T02:16:04;22.40;42.70
74359;DHT22;62792;46.236;6.040;2023-04-25T02:21:08;22.40;42.80
74359;DHT22;62792;46.236;6.040;2023-04-25T02:26:12;22.40;42.90
74359;DHT22;62792;46.236;6.040;2023-04-25T02:31:15;22.40;42.80
74359;DHT22;62792;46.236;6.040;2023-04-25T02:36:19;22.40;42.90
74359;DHT22;62792;46.236;6.040;2023-04-25T02:41:23;22.40;43.00
74359;DHT22;62792;46.236;6.040;2023-04-25T02:46:26;22.30;42.80
74359;DHT22;62792;46.236;6.040;2023-04-25T02:51:39;22.40;42.90
74359;DHT22;62792;46.236;6.040;2023-04-25T02:56:45;22.40;43.00
74359;DHT22;62792;46.236;6.040;2023-04-25T03:01:47;22.30;43.00
74359;DHT22;62792;46.236;6.040;2023-04-25T03:06:51;22.40;42.90
74359;DHT22;62792;46.236;6.040;2023-04-25T03:11:55;22.40;43.20
74359;DHT22;62792;46.236;6.040;2023-04-25T03:16:58;22.40;43.20
74359;DHT22;62792;46.236;6.040;2023-04-25T03:22:01;22.30;43.30
74359;DHT22;62792;46.236;6.040;2023-04-25T03:27:05;22.30;43.30
74359;DHT22;62792;46.236;6.040;2023-04-25T03:32:08;22.30;43.40
74359;DHT22;62792;46.236;6.040;2023-04-25T03:37:12;22.40;43.20
74359;DHT22;62792;46.236;6.040;2023-04-25T03:42:16;22.30;43.20
74359;DHT22;62792;46.236;6.040;2023-04-25T03:47:21;22.30;43.40
74359;DHT22;62792;46.236;6.040;2023-04-25T03:52:25;22.30;43.60
74359;DHT22;62792;46.236;6.040;2023-04-25T03:57:29;22.30;43.70
74359;DHT22;62792;46.236;6.040;2023-04-25T04:02:32;22.30;43.70
74359;DHT22;62792;46.236;6.040;2023-04-25T04:07:36;22.30;43.60
74359;DHT22;62792;46.236;6.040;2023-04-25T04:12:42;22.30;43.90
74359;DHT22;62792;46.236;6.040;2023-04-25T04:17:45;22.30;43.60
74359;DHT22;62792;46.236;6.040;2023-04-25T04:22:48;22.30;43.70
74359;DHT22;62792;46.236;6.040;2023-04-25T04:27:52;22.30;43.90
74359;DHT22;62792;46.236;6.040;2023-04-25T04:32:56;22.30;44.00
74359;DHT22;62792;46.236;6.040;2023-04-25T04:37:59;22.40;43.80
74359;DHT22;62792;46.236;6.040;2023-04-25T04:43:03;22.30;44.00
74359;DHT22;62792;46.236;6.040;2023-04-25T04:48:07;22.30;44.00
74359;DHT22;62792;46.236;6.040;2023-04-25T04:53:10;22.30;43.90
74359;DHT22;62792;46.236;6.040;2023-04-25T04:58:15;22.40;44.10
74359;DHT22;62792;46.236;6.040;2023-04-25T05:03:19;22.40;44.30
74359;DHT22;62792;46.236;6.040;2023-04-25T05:08:23;22.30;44.00
74359;DHT22;62792;46.236;6.040;2023-04-25T05:13:27;22.40;44.20
74359;DHT22;62792;46.236;6.040;2023-04-25T05:18:30;22.40;44.10
74359;DHT22;62792;46.236;6.040;2023-04-25T05:23:33;22.40;44.40
74359;DHT22;62792;46.236;6.040;2023-04-25T05:28:37;22.40;44.20
74359;DHT22;62792;46.236;6.040;2023-04-25T05:33:40;22.30;44.20
74359;DHT22;62792;46.236;6.040;2023-04-25T05:38:43;22.40;44.30
74359;DHT22;62792;46.236;6.040;2023-04-25T05:43:48;22.40;44.30
74359;DHT22;62792;46.236;6.040;2023-04-25T05:48:53;22.30;44.50
74359;DHT22;62792;46.236;6.040;2023-04-25T05:53:55;22.40;44.30
74359;DHT22;62792;46.236;6.040;2023-04-25T05:59:00;22.30;44.40
74359;DHT22;62792;46.236;6.040;2023-04-25T06:04:03;22.50;44.50
74359;DHT22;62792;46.236;6.040;2023-04-25T06:09:06;22.50;44.70
74359;DHT22;62792;46.236;6.040;2023-04-25T06:14:10;22.40;44.60
74359;DHT22;62792;46.236;6.040;2023-04-25T06:19:13;22.40;44.50
74359;DHT22;62792;46.236;6.040;2023-04-25T06:24:16;22.50;44.70
74359;DHT22;62792;46.236;6.040;2023-04-25T06:29:20;22.50;44.60
74359;DHT22;62792;46.236;6.040;2023-04-25T06:34:23;22.50;44.50
74359;DHT22;62792;46.236;6.040;2023-04-25T06:39:26;22.50;44.60
74359;DHT22;62792;46.236;6.040;2023-04-25T06:44:30;22.50;44.40
74359;DHT22;62792;46.236;6.040;2023-04-25T06:49:33;22.60;44.70
74359;DHT22;62792;46.236;6.040;2023-04-25T06:54:37;22.60;44.60
74359;DHT22;62792;46.236;6.040;2023-04-25T06:59:42;22.50;44.50
74359;DHT22;62792;46.236;6.040;2023-04-25T07:04:44;22.60;44.90
74359;DHT22;62792;46.236;6.040;2023-04-25T07:09:48;22.60;44.60
74359;DHT22;62792;46.236;6.040;2023-04-25T07:14:52;22.70;44.50
74359;DHT22;62792;46.236;6.040;2023-04-25T07:19:55;22.60;44.60
74359;DHT22;62792;46.236;6.040;2023-04-25T07:24:58;22.70;44.60
74359;DHT22;62792;46.236;6.040;2023-04-25T07:30:03;22.70;44.50
74359;DHT22;62792;46.236;6.040;2023-04-25T07:35:07;22.80;44.50
74359;DHT22;62792;46.236;6.040;2023-04-25T07:40:11;22.80;44.40
74359;DHT22;62792;46.236;6.040;2023-04-25T07:45:15;22.80;44.40
74359;DHT22;62792;46.236;6.040;2023-04-25T07:50:18;22.90;44.40
74359;DHT22;62792;46.236;6.040;2023-04-25T07:55:21;22.80;44.20
74359;DHT22;62792;46.236;6.040;2023-04-25T08:00:25;22.90;44.40
74359;DHT22;62792;46.236;6.040;2023-04-25T08:05:28;22.90;43.90
74359;DHT22;62792;46.236;6.040;2023-04-25T08:10:31;23.00;43.90
74359;DHT22;62792;46.236;6.040;2023-04-25T08:15:35;23.00;43.60
74359;DHT22;62792;46.236;6.040;2023-04-25T08:20:38;22.90;43.50
74359;DHT22;62792;46.236;6.040;2023-04-25T08:25:41;22.90;43.00
74359;DHT22;62792;46.236;6.040;2023-04-25T08:30:46;23.00;43.10
74359;DHT22;62792;46.236;6.040;2023-04-25T08:35:49;22.90;43.20
74359;DHT22;62792;46.236;6.040;2023-04-25T08:40:52;22.90;43.10
74359;DHT22;62792;46.236;6.040;2023-04-25T08:45:59;22.80;43.30
74359;DHT22;62792;46.236;6.040;2023-04-25T08:51:02;22.90;43.00
74359;DHT22;62792;46.236;6.040;2023-04-25T08:56:10;22.80;43.00
74359;DHT22;62792;46.236;6.040;2023-04-25T09:01:17;23.00;43.10
74359;DHT22;62792;46.236;6.040;2023-04-25T09:06:21;23.00;43.20
74359;DHT22;62792;46.236;6.040;2023-04-25T09:11:24;23.00;43.30
74359;DHT22;62792;46.236;6.040;2023-04-25T09:16:29;23.00;43.40
74359;DHT22;62792;46.236;6.040;2023-04-25T09:21:34;23.00;43.40
74359;DHT22;62792;46.236;6.040;2023-04-25T09:26:37;22.90;43.10
74359;DHT22;62792;46.236;6.040;2023-04-25T09:31:42;23.00;43.10
74359;DHT22;62792;46.236;6.040;2023-04-25T09:36:45;23.00;43.00
74359;DHT22;62792;46.236;6.040;2023-04-25T09:41:53;23.00;43.00
74359;DHT22;62792;46.236;6.040;2023-04-25T09:46:59;23.00;43.20
74359;DHT22;62792;46.236;6.040;2023-04-25T09:52:04;23.00;43.20
74359;DHT22;62792;46.236;6.040;2023-04-25T09:57:09;23.00;43.20
74359;DHT22;62792;46.236;6.040;2023-04-25T10:02:16;23.00;43.00
74359;DHT22;62792;46.236;6.040;2023-04-25T10:07:21;23.00;42.80
74359;DHT22;62792;46.236;6.040;2023-04-25T10:12:27;23.00;42.70
74359;DHT22;62792;46.236;6.040;2023-04-25T10:17:31;23.00;42.70
74359;DHT22;62792;46.236;6.040;2023-04-25T10:22:36;23.00;42.60
74359;DHT22;62792;46.236;6.040;2023-04-25T10:27:40;23.00;42.50
74359;DHT22;62792;46.236;6.040;2023-04-25T10:32:45;23.00;42.40
74359;DHT22;62792;46.236;6.040;2023-04-25T10:37:58;23.10;42.40
74359;DHT22;62792;46.236;6.040;2023-04-25T10:48:43;23.20;42.30
74359;DHT22;62792;46.236;6.040;2023-04-25T10:53:56;23.30;42.00
74359;DHT22;62792;46.236;6.040;2023-04-25T10:59:07;23.30;42.00
74359;DHT22;62792;46.236;6.040;2023-04-25T11:04:22;23.30;42.00
74359;DHT22;62792;46.236;6.040;2023-04-25T11:09:27;23.30;41.80
74359;DHT22;62792;46.236;6.040;2023-04-25T11:14:30;23.40;41.70
74359;DHT22;62792;46.236;6.040;2023-04-25T11:19:34;23.40;41.70
74359;DHT22;62792;46.236;6.040;2023-04-25T11:24:37;23.40;41.70
74359;DHT22;62792;46.236;6.040;2023-04-25T11:29:41;23.40;41.60
74359;DHT22;62792;46.236;6.040;2023-04-25T11:34:45;23.50;41.70
74359;DHT22;62792;46.236;6.040;2023-04-25T11:39:50;23.50;41.60
74359;DHT22;62792;46.236;6.040;2023-04-25T11:44:54;23.40;41.40
74359;DHT22;62792;46.236;6.040;2023-04-25T11:49:59;23.40;41.60
74359;DHT22;62792;46.236;6.040;2023-04-25T11:55:03;23.50;41.50
74359;DHT22;62792;46.236;6.040;2023-04-25T12:00:12;23.50;41.30
74359;DHT22;62792;46.236;6.040;2023-04-25T12:05:23;23.60;41.30
74359;DHT22;62792;46.236;6.040;2023-04-25T12:10:36;23.60;41.30
74359;DHT22;62792;46.236;6.040;2023-04-25T12:15:40;23.60;41.30
74359;DHT22;62792;46.236;6.040;2023-04-25T12:20:44;23.60;41.30
74359;DHT22;62792;46.236;6.040;2023-04-25T12:25:48;23.60;41.50
74359;DHT22;62792;46.236;6.040;2023-04-25T12:30:54;23.60;40.70
74359;DHT22;62792;46.236;6.040;2023-04-25T12:36:01;23.70;40.70
74359;DHT22;62792;46.236;6.040;2023-04-25T12:41:10;23.60;40.90
74359;DHT22;62792;46.236;6.040;2023-04-25T12:46:13;23.70;40.60
74359;DHT22;62792;46.236;6.040;2023-04-25T12:51:18;23.60;40.70
74359;DHT22;62792;46.236;6.040;2023-04-25T12:56:21;23.70;40.60
74359;DHT22;62792;46.236;6.040;2023-04-25T13:01:26;23.80;40.80
74359;DHT22;62792;46.236;6.040;2023-04-25T13:06:30;23.90;40.60
74359;DHT22;62792;46.236;6.040;2023-04-25T13:11:33;23.80;40.60
74359;DHT22;62792;46.236;6.040;2023-04-25T13:16:37;23.80;40.50
74359;DHT22;62792;46.236;6.040;2023-04-25T13:21:41;23.90;40.60
74359;DHT22;62792;46.236;6.040;2023-04-25T13:26:44;23.80;40.60
74359;DHT22;62792;46.236;6.040;2023-04-25T13:31:47;23.80;40.50
74359;DHT22;62792;46.236;6.040;2023-04-25T13:36:51;23.90;40.50
74359;DHT22;62792;46.236;6.040;2023-04-25T13:41:54;23.90;40.50
74359;DHT22;62792;46.236;6.040;2023-04-25T13:46:57;24.00;40.70
74359;DHT22;62792;46.236;6.040;2023-04-25T13:52:03;24.00;40.60
74359;DHT22;62792;46.236;6.040;2023-04-25T13:57:06;24.00;40.40
74359;DHT22;62792;46.236;6.040;2023-04-25T14:02:09;24.10;40.50
74359;DHT22;62792;46.236;6.040;2023-04-25T14:07:14;24.10;40.30
74359;DHT22;62792;46.236;6.040;2023-04-25T14:12:18;24.20;40.60
74359;DHT22;62792;46.236;6.040;2023-04-25T14:17:21;24.20;40.30
74359;DHT22;62792;46.236;6.040;2023-04-25T14:22:25;24.20;40.20
74359;DHT22;62792;46.236;6.040;2023-04-25T14:27:28;24.30;40.10
74359;DHT22;62792;46.236;6.040;2023-04-25T14:32:31;24.50;39.80
74359;DHT22;62792;46.236;6.040;2023-04-25T14:37:35;24.60;39.80
74359;DHT22;62792;46.236;6.040;2023-04-25T14:42:38;24.70;39.80
74359;DHT22;62792;46.236;6.040;2023-04-25T14:47:41;24.70;39.80
74359;DHT22;62792;46.236;6.040;2023-04-25T14:52:46;24.70;39.90
74359;DHT22;62792;46.236;6.040;2023-04-25T14:57:49;25.00;39.50
74359;DHT22;62792;46.236;6.040;2023-04-25T15:02:52;24.90;39.60
74359;DHT22;62792;46.236;6.040;2023-04-25T15:07:57;24.90;39.90
74359;DHT22;62792;46.236;6.040;2023-04-25T15:13:00;24.90;39.70
74359;DHT22;62792;46.236;6.040;2023-04-25T15:18:03;25.80;38.90
74359;DHT22;62792;46.236;6.040;2023-04-25T15:23:08;26.60;37.50
74359;DHT22;62792;46.236;6.040;2023-04-25T15:28:11;27.70;36.50
74359;DHT22;62792;46.236;6.040;2023-04-25T15:33:15;28.30;36.30
74359;DHT22;62792;46.236;6.040;2023-04-25T15:38:19;29.40;34.90
74359;DHT22;62792;46.236;6.040;2023-04-25T15:43:22;29.30;34.80
74359;DHT22;62792;46.236;6.040;2023-04-25T15:48:25;29.80;34.50
74359;DHT22;62792;46.236;6.040;2023-04-25T15:53:30;29.90;34.40
74359;DHT22;62792;46.236;6.040;2023-04-25T15:58:33;29.70;34.40
74359;DHT22;62792;46.236;6.040;2023-04-25T16:03:36;29.20;34.70
74359;DHT22;62792;46.236;6.040;2023-04-25T16:08:41;27.70;36.60
74359;DHT22;62792;46.236;6.040;2023-04-25T16:13:44;26.80;37.40
74359;DHT22;62792;46.236;6.040;2023-04-25T16:18:47;28.10;36.50
74359;DHT22;62792;46.236;6.040;2023-04-25T16:23:51;28.80;35.90
74359;DHT22;62792;46.236;6.040;2023-04-25T16:28:54;29.30;34.90
74359;DHT22;62792;46.236;6.040;2023-04-25T16:33:57;28.20;36.10
74359;DHT22;62792;46.236;6.040;2023-04-25T16:39:01;27.60;36.80
74359;DHT22;62792;46.236;6.040;2023-04-25T16:44:04;29.40;34.90
74359;DHT22;62792;46.236;6.040;2023-04-25T16:49:08;29.90;34.20
74359;DHT22;62792;46.236;6.040;2023-04-25T16:54:13;30.50;33.90
74359;DHT22;62792;46.236;6.040;2023-04-25T16:59:16;29.20;34.70
74359;DHT22;62792;46.236;6.040;2023-04-25T17:04:19;29.40;34.50
74359;DHT22;62792;46.236;6.040;2023-04-25T17:09:24;28.30;35.70
74359;DHT22;62792;46.236;6.040;2023-04-25T17:14:29;28.30;36.20
74359;DHT22;62792;46.236;6.040;2023-04-25T17:19:35;27.60;36.30
74359;DHT22;62792;46.236;6.040;2023-04-25T17:24:40;27.30;36.70
74359;DHT22;62792;46.236;6.040;2023-04-25T17:29:43;26.90;36.90
74359;DHT22;62792;46.236;6.040;2023-04-25T17:34:46;26.80;37.00
74359;DHT22;62792;46.236;6.040;2023-04-25T17:39:51;26.30;38.30
74359;DHT22;62792;46.236;6.040;2023-04-25T17:44:53;25.90;38.70
74359;DHT22;62792;46.236;6.040;2023-04-25T17:49:56;25.60;38.80
74359;DHT22;62792;46.236;6.040;2023-04-25T17:55:01;25.60;39.00
74359;DHT22;62792;46.236;6.040;2023-04-25T18:00:04;25.40;39.20
74359;DHT22;62792;46.236;6.040;2023-04-25T18:05:09;25.40;39.20
74359;DHT22;62792;46.236;6.040;2023-04-25T18:10:14;25.20;39.40
74359;DHT22;62792;46.236;6.040;2023-04-25T18:15:16;25.10;39.50
74359;DHT22;62792;46.236;6.040;2023-04-25T18:20:19;25.00;39.50
74359;DHT22;62792;46.236;6.040;2023-04-25T18:25:24;24.90;39.70
74359;DHT22;62792;46.236;6.040;2023-04-25T18:30:27;24.90;39.80
74359;DHT22;62792;46.236;6.040;2023-04-25T18:35:30;24.80;39.70
74359;DHT22;62792;46.236;6.040;2023-04-25T18:40:34;24.80;39.80
74359;DHT22;62792;46.236;6.040;2023-04-25T18:45:54;24.70;39.80
74359;DHT22;62792;46.236;6.040;2023-04-25T18:50:58;24.60;39.80
74359;DHT22;62792;46.236;6.040;2023-04-25T18:56:02;24.60;40.10
74359;DHT22;62792;46.236;6.040;2023-04-25T19:01:05;24.50;40.10
74359;DHT22;62792;46.236;6.040;2023-04-25T19:06:09;24.50;40.20
74359;DHT22;62792;46.236;6.040;2023-04-25T19:11:13;24.40;40.10
74359;DHT22;62792;46.236;6.040;2023-04-25T19:16:21;24.30;40.10
74359;DHT22;62792;46.236;6.040;2023-04-25T19:21:24;24.40;40.20
74359;DHT22;62792;46.236;6.040;2023-04-25T19:26:28;24.30;40.40
74359;DHT22;62792;46.236;6.040;2023-04-25T19:31:31;24.20;40.50
74359;DHT22;62792;46.236;6.040;2023-04-25T19:36:35;24.20;40.30
74359;DHT22;62792;46.236;6.040;2023-04-25T19:41:41;24.20;40.50
74359;DHT22;62792;46.236;6.040;2023-04-25T19:46:44;24.10;40.40
74359;DHT22;62792;46.236;6.040;2023-04-25T19:51:47;24.10;40.40
74359;DHT22;62792;46.236;6.040;2023-04-25T19:56:51;24.10;40.20
74359;DHT22;62792;46.236;6.040;2023-04-25T20:01:55;24.00;40.50
74359;DHT22;62792;46.236;6.040;2023-04-25T20:06:57;24.00;40.60
74359;DHT22;62792;46.236;6.040;2023-04-25T20:12:02;24.00;40.50
74359;DHT22;62792;46.236;6.040;2023-04-25T20:17:05;23.90;40.40
74359;DHT22;62792;46.236;6.040;2023-04-25T20:22:11;23.90;40.40
74359;DHT22;62792;46.236;6.040;2023-04-25T20:27:15;23.90;40.50
74359;DHT22;62792;46.236;6.040;2023-04-25T20:32:18;23.90;40.50
74359;DHT22;62792;46.236;6.040;2023-04-25T20:37:21;23.90;40.60
74359;DHT22;62792;46.236;6.040;2023-04-25T20:42:25;23.90;40.60
74359;DHT22;62792;46.236;6.040;2023-04-25T20:47:29;23.80;40.70
74359;DHT22;62792;46.236;6.040;2023-04-25T20:52:33;23.70;40.70
74359;DHT22;62792;46.236;6.040;2023-04-25T20:57:38;23.80;40.50
74359;DHT22;62792;46.236;6.040;2023-04-25T21:02:41;23.70;40.50
74359;DHT22;62792;46.236;6.040;2023-04-25T21:07:44;23.60;40.70
74359;DHT22;62792;46.236;6.040;2023-04-25T21:12:49;23.60;40.50
74359;DHT22;62792;46.236;6.040;2023-04-25T21:17:52;23.70;40.60
74359;DHT22;62792;46.236;6.040;2023-04-25T21:22:55;23.60;41.30
74359;DHT22;62792;46.236;6.040;2023-04-25T21:27:59;23.60;41.40
74359;DHT22;62792;46.236;6.040;2023-04-25T21:33:03;23.60;41.50
74359;DHT22;62792;46.236;6.040;2023-04-25T21:38:06;23.60;41.50
74359;DHT22;62792;46.236;6.040;2023-04-25T21:43:11;23.60;41.40
74359;DHT22;62792;46.236;6.040;2023-04-25T21:48:13;23.60;41.40
74359;DHT22;62792;46.236;6.040;2023-04-25T21:53:16;23.50;41.40
74359;DHT22;62792;46.236;6.040;2023-04-25T21:58:20;23.50;41.40
74359;DHT22;62792;46.236;6.040;2023-04-25T22:03:24;23.50;41.10
74359;DHT22;62792;46.236;6.040;2023-04-25T22:08:27;23.50;41.40
74359;DHT22;62792;46.236;6.040;2023-04-25T22:13:31;23.40;41.40
74359;DHT22;62792;46.236;6.040;2023-04-25T22:18:34;23.40;41.30
74359;DHT22;62792;46.236;6.040;2023-04-25T22:23:37;23.50;41.50
74359;DHT22;62792;46.236;6.040;2023-04-25T22:28:41;23.40;41.40
74359;DHT22;62792;46.236;6.040;2023-04-25T22:33:44;23.40;41.60
74359;DHT22;62792;46.236;6.040;2023-04-25T22:38:48;23.40;41.40
74359;DHT22;62792;46.236;6.040;2023-04-25T22:43:54;23.40;41.40
74359;DHT22;62792;46.236;6.040;2023-04-25T22:48:57;23.40;41.50
74359;DHT22;62792;46.236;6.040;2023-04-25T22:54:00;23.40;41.10
74359;DHT22;62792;46.236;6.040;2023-04-25T22:59:05;23.30;41.40
74359;DHT22;62792;46.236;6.040;2023-04-25T23:04:10;23.40;41.50
74359;DHT22;62792;46.236;6.040;2023-04-25T23:09:13;23.30;41.20
74359;DHT22;62792;46.236;6.040;2023-04-25T23:14:18;23.30;41.30
74359;DHT22;62792;46.236;6.040;2023-04-25T23:19:22;23.30;41.30
74359;DHT22;62792;46.236;6.040;2023-04-25T23:24:25;23.20;41.40
74359;DHT22;62792;46.236;6.040;2023-04-25T23:29:29;23.20;41.40
74359;DHT22;62792;46.236;6.040;2023-04-25T23:34:34;23.30;41.50
74359;DHT22;62792;46.236;6.040;2023-04-25T23:39:37;23.20;41.20
74359;DHT22;62792;46.236;6.040;2023-04-25T23:44:41;23.20;41.20
74359;DHT22;62792;46.236;6.040;2023-04-25T23:49:44;23.20;41.30
74359;DHT22;62792;46.236;6.040;2023-04-25T23:54:47;23.20;41.50
74359;DHT22;62792;46.236;6.040;2023-04-25T23:59:51;23.10;41.40
